Terminal Aerodrome Forecast
Issued by NWS

Home | Current Version | Previous Version | Text Only | Print | Product List | Glossary On
Versions: 1 2 3 4 5 6 7 8 9 10 11 12 13 14
000
FTUS45 KBOI 310520
TAFTWF
TAF
KTWF 310520Z 3106/0106 20011KT P6SM FEW250
     FM312100 33009KT P6SM SCT250
     FM010300 19011KT P6SM SCT250=

USA.gov is the U.S. government's official web portal to all federal, state and local government web resources and services.